Terminal Aerodrome Forecast
Issued by NWS Twin Cities, MN

Home | Current Version | Previous Version | Text Only | Print | Product List | Glossary Off
Versions: 1 2 3 4 5 6 7 8 9 10 11 12 13 14 15

171
FTUS43 KMPX 212339
TAFSTC
TAF
KSTC 212339Z 2200/2224 02006KT P6SM OVC100
     FM220500 02007KT P6SM OVC030
     FM220600 02007KT P6SM OVC015
     FM221000 02012KT P6SM OVC008
     FM221800 02015G26KT P6SM OVC010=

USA.gov is the U.S. government's official web portal to all federal, state and local government web resources and services.